Alba, Illinois
Current Conditions -  °F | °C
As of 7:52 PM on Friday 28 Nov 2014 (Local Time) from KMLI Reporting Station
Clear Clear  
Wind Chill: -3°   Ceiling: Unl
Heat Index:   Visibility: 8mi
Dew Point: -2°   Wind: 8mph
Humidity: 82%   Direction: 130°SE
Pressure: 29.83"   Gusts: NA
Location:  41.4097°N, 90.0293°W
Report Text: KMLI 290152Z 13007KT 8SM CLR 01/M02 A2983 RMK AO2 SLP111 T00111017
Loading
Personal Weather Stations






























Interactive Weather Map New forecast layout! Learn more

10-Day Weather Forecast

Advertisements
Track Severe Weather on mobile